Time;durP1;ratioP1;P1;durP2;ratioP2;P2;SDS_P1;SDS_P2;PMS_P1;PMS_P2;Temp;Humidity;BMP_temperature;BMP_pressure;BME280_temperature;BME280_humidity;BME280_pressure;Samples;Min_cycle;Max_cycle;Signal;HPM_P1;HPM_P2
2023/04/28 00:00:10;;;;;;;18.27;13.82;;;;;;;;;;4990971;28;20019;-71
2023/04/28 00:02:36;;;;;;;17.70;13.13;;;;;;;;;;4991127;28;20026;-71
2023/04/28 00:05:02;;;;;;;21.38;13.68;;;;;;;;;;4974005;28;20018;-71
2023/04/28 00:07:28;;;;;;;19.80;13.43;;;;;;;;;;4972941;28;20649;-71
2023/04/28 00:09:55;;;;;;;18.38;12.93;;;;;;;;;;4989650;28;20060;-71
2023/04/28 00:12:21;;;;;;;18.67;13.50;;;;;;;;;;4973987;28;20477;-71
2023/04/28 00:14:47;;;;;;;22.90;14.43;;;;;;;;;;4991005;28;20026;-71
2023/04/28 00:17:14;;;;;;;17.92;12.98;;;;;;;;;;5015158;23;20050;-76
2023/04/28 00:19:40;;;;;;;21.73;13.18;;;;;;;;;;4991019;28;20019;-76
2023/04/28 00:22:06;;;;;;;18.70;12.68;;;;;;;;;;4991762;28;20022;-76
2023/04/28 00:24:32;;;;;;;20.23;14.13;;;;;;;;;;4991770;28;20014;-77
2023/04/28 00:26:58;;;;;;;22.23;13.13;;;;;;;;;;4974240;28;20022;-74
2023/04/28 00:29:24;;;;;;;19.75;13.40;;;;;;;;;;4991614;28;20134;-76
2023/04/28 00:31:50;;;;;;;16.20;13.02;;;;;;;;;;4991572;28;20034;-77
2023/04/28 00:34:16;;;;;;;14.57;11.95;;;;;;;;;;4974018;28;20022;-77
2023/04/28 00:36:42;;;;;;;23.83;12.93;;;;;;;;;;4991582;28;20021;-76
2023/04/28 00:39:08;;;;;;;19.23;13.52;;;;;;;;;;4991373;28;20476;-76
2023/04/28 00:41:35;;;;;;;14.93;11.88;;;;;;;;;;4991593;28;20026;-76
2023/04/28 00:44:01;;;;;;;22.17;13.35;;;;;;;;;;4991439;28;20052;-75
2023/04/28 00:46:29;;;;;;;17.85;12.23;;;;;;;;;;4991390;28;20101;-75
2023/04/28 00:48:55;;;;;;;18.38;12.23;;;;;;;;;;4991179;28;20035;-75
2023/04/28 00:51:21;;;;;;;17.45;11.40;;;;;;;;;;4974559;28;20061;-76
2023/04/28 00:53:48;;;;;;;16.85;12.30;;;;;;;;;;4982695;28;20131;-75
2023/04/28 00:56:14;;;;;;;14.45;10.90;;;;;;;;;;4991132;28;20026;-75
2023/04/28 00:58:41;;;;;;;15.82;10.52;;;;;;;;;;4992972;28;20370;-78
2023/04/28 01:01:08;;;;;;;15.73;11.18;;;;;;;;;;4994794;28;20022;-76
2023/04/28 01:03:36;;;;;;;17.63;10.52;;;;;;;;;;4994705;28;20496;-78
2023/04/28 01:06:02;;;;;;;16.13;10.70;;;;;;;;;;4994492;28;20026;-77
2023/04/28 01:08:30;;;;;;;15.50;9.95;;;;;;;;;;4994429;28;20037;-79
2023/04/28 01:10:56;;;;;;;18.70;10.23;;;;;;;;;;4994560;28;20030;-75
2023/04/28 01:13:22;;;;;;;15.52;10.18;;;;;;;;;;4977205;28;20045;-76
2023/04/28 01:15:48;;;;;;;15.20;10.35;;;;;;;;;;4976790;28;20026;-76
2023/04/28 01:18:15;;;;;;;11.93;9.05;;;;;;;;;;4994327;28;20026;-76
2023/04/28 01:20:41;;;;;;;11.00;9.57;;;;;;;;;;4994430;28;20444;-76
2023/04/28 01:23:14;;;;;;;14.90;9.40;;;;;;;;;;4994535;28;20392;-75
2023/04/28 01:25:41;;;;;;;13.85;8.98;;;;;;;;;;4994661;28;20037;-75
2023/04/28 01:28:07;;;;;;;14.43;9.82;;;;;;;;;;4994268;28;20042;-75
2023/04/28 01:30:34;;;;;;;14.85;9.30;;;;;;;;;;4994070;28;20157;-79
2023/04/28 01:33:00;;;;;;;18.05;9.93;;;;;;;;;;4976785;28;20022;-76
2023/04/28 01:35:26;;;;;;;14.35;9.82;;;;;;;;;;4976762;28;20019;-76
2023/04/28 01:37:52;;;;;;;12.25;8.88;;;;;;;;;;4993870;28;20030;-76
2023/04/28 01:40:18;;;;;;;15.18;9.27;;;;;;;;;;4994130;28;20053;-76
2023/04/28 01:42:45;;;;;;;13.38;9.25;;;;;;;;;;4993839;28;20057;-76
2023/04/28 01:45:11;;;;;;;11.88;9.23;;;;;;;;;;4993952;28;20031;-76
2023/04/28 01:47:37;;;;;;;15.13;9.32;;;;;;;;;;4993615;28;20030;-73
2023/04/28 01:50:03;;;;;;;12.25;8.20;;;;;;;;;;4993674;28;20109;-76
2023/04/28 01:52:30;;;;;;;14.00;9.38;;;;;;;;;;4993810;28;20014;-77
2023/04/28 01:54:55;;;;;;;17.42;9.70;;;;;;;;;;4993676;28;20435;-77
2023/04/28 01:57:21;;;;;;;11.77;8.23;;;;;;;;;;4975645;28;20019;-77
2023/04/28 01:59:48;;;;;;;11.63;8.65;;;;;;;;;;4993797;28;20050;-77
2023/04/28 02:02:14;;;;;;;13.20;8.55;;;;;;;;;;4993435;28;20018;-76
2023/04/28 02:04:40;;;;;;;12.18;8.90;;;;;;;;;;4993516;28;20050;-76
2023/04/28 02:07:06;;;;;;;13.82;9.00;;;;;;;;;;4975672;28;20026;-76
2023/04/28 02:09:32;;;;;;;13.80;9.43;;;;;;;;;;4975480;28;20492;-77
2023/04/28 02:11:59;;;;;;;11.43;7.82;;;;;;;;;;4975648;28;20049;-76
2023/04/28 02:14:25;;;;;;;16.60;9.15;;;;;;;;;;4993219;28;20054;-74
2023/04/28 02:16:51;;;;;;;13.80;9.05;;;;;;;;;;4993154;28;20050;-76
2023/04/28 02:19:17;;;;;;;12.57;8.52;;;;;;;;;;4975460;28;20041;-76
2023/04/28 02:21:43;;;;;;;15.80;8.43;;;;;;;;;;4975870;28;20033;-76
2023/04/28 02:24:09;;;;;;;17.63;9.20;;;;;;;;;;4992873;28;20092;-75
2023/04/28 02:26:35;;;;;;;16.80;9.48;;;;;;;;;;4992982;28;20069;-76
2023/04/28 02:29:04;;;;;;;11.85;8.70;;;;;;;;;;4975221;28;20048;-76
2023/04/28 02:31:30;;;;;;;15.90;9.48;;;;;;;;;;4975538;28;20394;-77
2023/04/28 02:33:56;;;;;;;13.75;9.20;;;;;;;;;;4975281;28;20107;-75
2023/04/28 02:36:22;;;;;;;12.32;8.98;;;;;;;;;;4975486;28;20095;-74
2023/04/28 02:38:48;;;;;;;16.27;9.15;;;;;;;;;;4992551;28;20506;-74
2023/04/28 02:41:15;;;;;;;13.93;9.85;;;;;;;;;;4992869;28;20026;-76
2023/04/28 02:43:41;;;;;;;14.73;9.30;;;;;;;;;;4993051;28;20030;-75
2023/04/28 02:46:07;;;;;;;15.40;9.40;;;;;;;;;;4975276;28;20493;-76
2023/04/28 02:48:34;;;;;;;14.48;9.15;;;;;;;;;;4975142;28;20546;-76
2023/04/28 02:51:01;;;;;;;14.48;8.75;;;;;;;;;;4992637;28;20026;-75
2023/04/28 02:53:27;;;;;;;14.25;9.32;;;;;;;;;;4986157;28;20019;-74
2023/04/28 02:55:53;;;;;;;13.40;9.13;;;;;;;;;;4989376;28;20037;-76
2023/04/28 02:58:19;;;;;;;12.90;9.57;;;;;;;;;;4975151;28;20389;-78
2023/04/28 03:00:45;;;;;;;12.75;7.90;;;;;;;;;;4975597;28;20369;-79
2023/04/28 03:03:12;;;;;;;14.63;9.00;;;;;;;;;;4992764;28;20033;-76
2023/04/28 03:05:38;;;;;;;12.77;9.13;;;;;;;;;;4992626;28;20031;-77
2023/04/28 03:08:04;;;;;;;14.60;8.35;;;;;;;;;;4992530;28;20495;-77
2023/04/28 03:10:30;;;;;;;14.00;8.38;;;;;;;;;;4992454;28;20100;-77
2023/04/28 03:12:56;;;;;;;11.52;8.02;;;;;;;;;;4975350;28;20050;-77
2023/04/28 03:15:22;;;;;;;12.70;8.90;;;;;;;;;;4992685;28;20153;-77
2023/04/28 03:17:48;;;;;;;11.38;8.18;;;;;;;;;;4975245;28;20026;-77
2023/04/28 03:20:14;;;;;;;14.07;9.35;;;;;;;;;;4994654;28;20034;-78
2023/04/28 03:22:40;;;;;;;18.10;9.25;;;;;;;;;;4993593;28;20026;-78
2023/04/28 03:25:06;;;;;;;12.40;8.05;;;;;;;;;;4993381;28;20029;-77
2023/04/28 03:27:32;;;;;;;11.90;8.82;;;;;;;;;;4992876;28;20485;-77
2023/04/28 03:29:58;;;;;;;12.65;8.95;;;;;;;;;;4992449;28;20041;-76
2023/04/28 03:32:24;;;;;;;15.00;8.63;;;;;;;;;;4992498;28;20014;-76
2023/04/28 03:34:50;;;;;;;11.98;8.70;;;;;;;;;;4992535;28;20480;-77
2023/04/28 03:37:16;;;;;;;12.90;8.68;;;;;;;;;;4992279;28;20393;-77
2023/04/28 03:39:43;;;;;;;11.32;8.25;;;;;;;;;;4974900;28;20022;-78
2023/04/28 03:42:09;;;;;;;17.33;9.60;;;;;;;;;;4992918;28;20026;-76
2023/04/28 03:44:35;;;;;;;13.75;8.88;;;;;;;;;;4975903;28;20496;-75
2023/04/28 03:47:01;;;;;;;15.98;8.63;;;;;;;;;;4996654;28;20066;-75
2023/04/28 03:49:27;;;;;;;12.55;8.55;;;;;;;;;;4978520;28;20408;-75
2023/04/28 03:51:53;;;;;;;16.40;9.40;;;;;;;;;;4992083;28;20437;-75
2023/04/28 03:54:19;;;;;;;19.08;9.02;;;;;;;;;;4992372;28;20097;-75
2023/04/28 03:56:45;;;;;;;13.18;8.55;;;;;;;;;;4992184;28;20022;-77
2023/04/28 03:59:12;;;;;;;14.15;9.25;;;;;;;;;;4992096;28;20077;-74
2023/04/28 04:01:38;;;;;;;13.23;8.45;;;;;;;;;;4992107;28;20034;-74
2023/04/28 04:04:04;;;;;;;14.77;9.18;;;;;;;;;;4992328;28;20034;-74
2023/04/28 04:06:31;;;;;;;11.57;8.05;;;;;;;;;;4992036;28;20026;-75
2023/04/28 04:08:57;;;;;;;14.77;9.07;;;;;;;;;;4991594;28;20164;-75
2023/04/28 04:11:23;;;;;;;12.70;9.00;;;;;;;;;;4993064;28;20416;-76
2023/04/28 04:13:49;;;;;;;14.60;8.65;;;;;;;;;;4976683;28;20022;-76
2023/04/28 04:16:15;;;;;;;13.38;8.98;;;;;;;;;;4993138;28;20118;-76
2023/04/28 04:18:41;;;;;;;17.98;8.27;;;;;;;;;;4992417;28;20075;-76
2023/04/28 04:21:07;;;;;;;11.30;7.72;;;;;;;;;;4993134;28;20038;-76
2023/04/28 04:23:33;;;;;;;12.65;7.78;;;;;;;;;;4993390;28;20030;-75
2023/04/28 04:25:59;;;;;;;11.25;8.02;;;;;;;;;;4979345;28;20505;-77
2023/04/28 04:28:25;;;;;;;12.35;8.55;;;;;;;;;;4996945;28;20062;-78
2023/04/28 04:30:52;;;;;;;14.07;8.30;;;;;;;;;;4997184;28;20053;-76
2023/04/28 04:33:18;;;;;;;17.98;8.43;;;;;;;;;;5001948;28;20488;-79
2023/04/28 04:35:44;;;;;;;14.05;8.27;;;;;;;;;;5001159;28;20052;-78
2023/04/28 04:38:10;;;;;;;12.05;8.35;;;;;;;;;;4997343;28;20670;-78
2023/04/28 04:40:36;;;;;;;11.93;8.25;;;;;;;;;;4996589;28;20116;-76
2023/04/28 04:43:02;;;;;;;14.07;8.55;;;;;;;;;;4996578;28;20026;-77
2023/04/28 04:45:28;;;;;;;16.98;8.30;;;;;;;;;;4996227;28;20035;-76
2023/04/28 04:47:54;;;;;;;13.70;8.48;;;;;;;;;;4995887;28;20040;-77
2023/04/28 04:50:20;;;;;;;13.63;8.18;;;;;;;;;;4997226;28;20080;-78
2023/04/28 04:52:46;;;;;;;14.35;8.68;;;;;;;;;;4989645;28;20037;-77
2023/04/28 04:55:12;;;;;;;14.15;8.43;;;;;;;;;;4986222;28;20126;-75
2023/04/28 04:57:38;;;;;;;14.95;9.02;;;;;;;;;;4994046;28;20110;-76
2023/04/28 05:00:05;;;;;;;13.90;8.35;;;;;;;;;;4994831;28;20653;-74
2023/04/28 05:02:31;;;;;;;15.55;8.13;;;;;;;;;;4994741;28;20485;-76
2023/04/28 05:04:57;;;;;;;12.27;8.32;;;;;;;;;;4994640;28;20034;-76
2023/04/28 05:07:25;;;;;;;12.90;8.82;;;;;;;;;;4994499;28;20022;-77
2023/04/28 05:09:51;;;;;;;12.07;8.20;;;;;;;;;;4994458;28;20026;-75
2023/04/28 05:12:17;;;;;;;12.85;8.05;;;;;;;;;;4994704;28;20033;-77
2023/04/28 05:14:43;;;;;;;11.32;8.10;;;;;;;;;;4977109;28;20432;-78
2023/04/28 05:17:09;;;;;;;20.80;9.25;;;;;;;;;;4994232;28;20030;-78
2023/04/28 05:19:35;;;;;;;13.98;7.95;;;;;;;;;;4994457;28;20146;-77
2023/04/28 05:22:01;;;;;;;16.58;9.15;;;;;;;;;;4994508;28;20030;-76
2023/04/28 05:24:27;;;;;;;16.10;8.32;;;;;;;;;;4994357;28;20026;-77
2023/04/28 05:26:53;;;;;;;19.58;9.40;;;;;;;;;;4976752;28;20073;-79
2023/04/28 05:29:20;;;;;;;12.70;7.57;;;;;;;;;;4976470;28;20030;-77
2023/04/28 05:31:46;;;;;;;14.55;8.55;;;;;;;;;;4994036;28;20520;-77
2023/04/28 05:34:12;;;;;;;14.88;8.80;;;;;;;;;;4994173;28;20081;-76
2023/04/28 05:36:38;;;;;;;13.13;8.07;;;;;;;;;;4976221;28;20015;-75
2023/04/28 05:39:05;;;;;;;14.25;8.57;;;;;;;;;;4993435;28;20026;-76
2023/04/28 05:41:31;;;;;;;14.27;8.63;;;;;;;;;;4993937;28;20037;-76
2023/04/28 05:43:57;;;;;;;19.65;8.68;;;;;;;;;;4993234;28;20030;-77
2023/04/28 05:46:23;;;;;;;12.45;7.68;;;;;;;;;;4994041;28;20371;-77
2023/04/28 05:48:49;;;;;;;12.60;8.23;;;;;;;;;;4976299;28;20033;-77
2023/04/28 05:51:15;;;;;;;11.23;7.75;;;;;;;;;;4993706;28;20231;-77
2023/04/28 05:53:41;;;;;;;12.20;8.10;;;;;;;;;;4993734;28;20023;-77
2023/04/28 05:56:07;;;;;;;16.85;8.43;;;;;;;;;;4992133;28;20547;-76
2023/04/28 05:58:34;;;;;;;16.33;9.02;;;;;;;;;;4993285;28;20022;-77
2023/04/28 06:01:00;;;;;;;12.73;8.07;;;;;;;;;;4993590;28;20034;-77
2023/04/28 06:03:26;;;;;;;13.18;8.13;;;;;;;;;;4993787;28;20057;-77
2023/04/28 06:05:52;;;;;;;17.75;7.85;;;;;;;;;;4993437;28;20254;-76
2023/04/28 06:08:19;;;;;;;12.23;8.02;;;;;;;;;;4992702;28;20026;-76
2023/04/28 06:10:45;;;;;;;11.00;7.15;;;;;;;;;;4994486;28;20033;-77
2023/04/28 06:13:11;;;;;;;11.95;7.50;;;;;;;;;;4993719;28;20048;-76
2023/04/28 06:18:08;;;;;;;12.55;6.97;;;;;;;;;;5014242;23;20485;-72
2023/04/28 06:20:34;;;;;;;12.80;6.97;;;;;;;;;;4992779;28;20022;-72
2023/04/28 06:23:02;;;;;;;11.65;7.47;;;;;;;;;;4993133;28;20559;-73
2023/04/28 06:25:28;;;;;;;9.52;7.18;;;;;;;;;;4974309;28;20076;-71
2023/04/28 06:27:54;;;;;;;10.23;6.97;;;;;;;;;;4992770;28;20026;-72
2023/04/28 06:30:23;;;;;;;11.98;7.57;;;;;;;;;;4993057;28;20519;-72
2023/04/28 06:32:50;;;;;;;10.65;6.85;;;;;;;;;;4992410;28;20377;-71
2023/04/28 06:35:16;;;;;;;16.98;7.07;;;;;;;;;;4992900;28;20046;-71
2023/04/28 06:37:42;;;;;;;13.85;7.10;;;;;;;;;;4992443;28;20046;-72
2023/04/28 06:40:09;;;;;;;12.35;6.82;;;;;;;;;;4975321;28;20073;-72
2023/04/28 06:42:35;;;;;;;14.40;7.03;;;;;;;;;;4975116;28;20030;-70
2023/04/28 06:45:02;;;;;;;13.43;6.72;;;;;;;;;;4975330;28;20080;-72
2023/04/28 06:47:28;;;;;;;9.52;6.53;;;;;;;;;;4992324;28;20092;-72
2023/04/28 06:49:54;;;;;;;19.75;7.40;;;;;;;;;;4992275;28;20224;-71
2023/04/28 06:52:21;;;;;;;12.55;7.10;;;;;;;;;;4992515;28;20053;-72
2023/04/28 06:54:47;;;;;;;15.88;6.50;;;;;;;;;;4992232;28;20027;-72
2023/04/28 06:57:13;;;;;;;18.80;7.32;;;;;;;;;;4992002;28;20440;-71
2023/04/28 06:59:39;;;;;;;14.18;7.05;;;;;;;;;;4992071;28;20033;-71
2023/04/28 07:02:05;;;;;;;10.80;6.65;;;;;;;;;;4992293;28;20374;-71
2023/04/28 07:04:31;;;;;;;14.40;6.95;;;;;;;;;;4992142;28;20129;-71
2023/04/28 07:06:57;;;;;;;12.23;7.25;;;;;;;;;;4992089;28;20027;-72
2023/04/28 07:09:23;;;;;;;10.15;6.10;;;;;;;;;;4991966;28;20457;-72
2023/04/28 07:11:49;;;;;;;10.77;6.15;;;;;;;;;;4990614;28;20469;-70
2023/04/28 07:14:15;;;;;;;10.38;6.40;;;;;;;;;;4974131;28;20025;-72
2023/04/28 07:16:41;;;;;;;12.82;6.75;;;;;;;;;;4974338;28;20026;-71
2023/04/28 07:19:07;;;;;;;15.43;6.50;;;;;;;;;;4973315;28;20512;-72
2023/04/28 07:21:33;;;;;;;10.60;6.65;;;;;;;;;;4990791;28;20023;-70
2023/04/28 07:23:59;;;;;;;11.77;6.38;;;;;;;;;;4990723;28;20113;-70
2023/04/28 07:26:25;;;;;;;15.60;6.35;;;;;;;;;;4973679;28;20022;-71
2023/04/28 07:28:51;;;;;;;10.95;6.00;;;;;;;;;;4991592;28;20026;-71
2023/04/28 07:31:18;;;;;;;9.00;5.90;;;;;;;;;;4991810;28;20110;-72
2023/04/28 07:33:44;;;;;;;12.73;6.30;;;;;;;;;;4992131;28;20022;-71
2023/04/28 07:36:10;;;;;;;12.65;5.82;;;;;;;;;;4991740;28;20027;-72
2023/04/28 07:38:36;;;;;;;13.73;6.22;;;;;;;;;;4991778;28;20014;-72
2023/04/28 07:41:03;;;;;;;11.93;5.85;;;;;;;;;;4991937;28;20026;-71
2023/04/28 07:43:29;;;;;;;11.43;5.78;;;;;;;;;;4991893;28;20061;-71
2023/04/28 07:45:55;;;;;;;13.65;5.90;;;;;;;;;;4991635;28;20030;-72
2023/04/28 07:48:21;;;;;;;11.07;5.80;;;;;;;;;;4991506;28;20046;-72
2023/04/28 07:50:47;;;;;;;9.35;5.47;;;;;;;;;;4991743;28;20062;-71
2023/04/28 07:53:13;;;;;;;13.70;6.53;;;;;;;;;;4987273;28;20015;-71
2023/04/28 07:55:42;;;;;;;13.63;5.97;;;;;;;;;;4987192;28;20029;-70
2023/04/28 07:58:08;;;;;;;15.13;5.90;;;;;;;;;;4991255;28;20034;-70
2023/04/28 08:00:34;;;;;;;12.93;5.65;;;;;;;;;;4989582;28;20026;-72
2023/04/28 08:03:00;;;;;;;14.60;5.82;;;;;;;;;;4972851;28;20096;-73
2023/04/28 08:05:26;;;;;;;9.68;5.65;;;;;;;;;;4991438;28;20045;-72
2023/04/28 08:07:52;;;;;;;12.13;5.35;;;;;;;;;;4976312;28;20397;-72
2023/04/28 08:10:21;;;;;;;8.10;5.00;;;;;;;;;;4990934;28;20035;-71
2023/04/28 08:12:50;;;;;;;11.88;5.38;;;;;;;;;;4987691;28;20026;-72
2023/04/28 08:15:17;;;;;;;8.98;5.32;;;;;;;;;;4977721;28;20046;-72
2023/04/28 08:17:43;;;;;;;10.13;5.03;;;;;;;;;;4994075;28;20500;-72
2023/04/28 08:20:09;;;;;;;8.75;5.45;;;;;;;;;;4994586;28;20026;-72
2023/04/28 08:22:35;;;;;;;10.18;5.10;;;;;;;;;;4994168;28;20077;-72
2023/04/28 08:25:02;;;;;;;11.77;5.38;;;;;;;;;;4978945;28;20030;-71
2023/04/28 08:27:28;;;;;;;10.63;5.22;;;;;;;;;;4994863;28;20480;-71
2023/04/28 08:29:54;;;;;;;13.23;5.32;;;;;;;;;;4995021;28;20481;-71
2023/04/28 08:32:20;;;;;;;10.45;5.00;;;;;;;;;;4993696;28;20485;-71
2023/04/28 08:34:46;;;;;;;9.40;4.90;;;;;;;;;;4993055;28;20491;-71
2023/04/28 08:37:12;;;;;;;9.68;4.53;;;;;;;;;;4983458;28;20027;-71
2023/04/28 08:39:38;;;;;;;9.60;5.75;;;;;;;;;;4994804;28;20022;-71
2023/04/28 08:42:04;;;;;;;14.32;5.38;;;;;;;;;;4993588;28;20033;-71
2023/04/28 08:44:38;;;;;;;9.57;4.82;;;;;;;;;;4993966;28;20027;-72
2023/04/28 08:47:07;;;;;;;9.65;4.75;;;;;;;;;;4992846;28;20038;-71
2023/04/28 08:49:35;;;;;;;12.40;4.60;;;;;;;;;;4994400;28;20485;-71
2023/04/28 08:52:02;;;;;;;8.98;5.40;;;;;;;;;;4993906;28;20516;-71
2023/04/28 08:54:31;;;;;;;9.50;5.00;;;;;;;;;;4994272;28;20491;-72
2023/04/28 08:56:57;;;;;;;10.27;4.40;;;;;;;;;;4994549;28;20093;-73
2023/04/28 08:59:23;;;;;;;12.50;5.55;;;;;;;;;;4994814;28;20456;-72
2023/04/28 09:01:49;;;;;;;10.00;4.60;;;;;;;;;;4977316;28;20503;-72
2023/04/28 09:04:16;;;;;;;8.00;4.68;;;;;;;;;;4978842;28;20130;-72
2023/04/28 09:06:44;;;;;;;12.70;4.82;;;;;;;;;;4994249;28;20042;-72
2023/04/28 09:09:23;;;;;;;12.80;4.47;;;;;;;;;;4994385;28;20097;-72
2023/04/28 09:11:50;;;;;;;11.07;4.85;;;;;;;;;;4994688;28;20034;-73
2023/04/28 09:14:16;;;;;;;8.95;4.53;;;;;;;;;;4994390;28;20077;-72
2023/04/28 09:16:42;;;;;;;16.40;4.38;;;;;;;;;;4976959;28;20372;-72
2023/04/28 09:19:08;;;;;;;11.35;4.18;;;;;;;;;;4992739;28;20028;-72
2023/04/28 09:21:45;;;;;;;7.10;4.25;;;;;;;;;;4994758;28;20101;-72
2023/04/28 09:24:15;;;;;;;10.45;3.78;;;;;;;;;;4993995;28;20571;-72
2023/04/28 09:26:50;;;;;;;11.15;3.65;;;;;;;;;;4999412;28;20033;-72
2023/04/28 09:29:16;;;;;;;9.35;3.28;;;;;;;;;;4993152;28;20096;-71
2023/04/28 09:31:43;;;;;;;6.68;4.18;;;;;;;;;;4992838;28;20524;-71
2023/04/28 09:34:10;;;;;;;9.32;3.45;;;;;;;;;;4993383;28;20025;-72
2023/04/28 09:36:39;;;;;;;6.93;3.40;;;;;;;;;;4976204;28;20026;-71
2023/04/28 09:39:06;;;;;;;9.35;4.18;;;;;;;;;;4992127;28;20145;-71
2023/04/28 09:41:36;;;;;;;14.77;4.05;;;;;;;;;;4993584;28;20456;-71
2023/04/28 09:44:11;;;;;;;16.75;4.10;;;;;;;;;;4993553;28;20037;-71
2023/04/28 09:46:37;;;;;;;10.73;3.92;;;;;;;;;;4976569;28;20116;-73
2023/04/28 09:49:03;;;;;;;6.70;3.45;;;;;;;;;;4993916;28;20030;-72
2023/04/28 09:51:29;;;;;;;7.70;3.75;;;;;;;;;;4976449;28;20027;-72
2023/04/28 09:53:59;;;;;;;8.27;3.75;;;;;;;;;;4976386;28;20580;-71
2023/04/28 09:56:27;;;;;;;9.98;3.85;;;;;;;;;;4993750;28;20131;-71
2023/04/28 09:58:53;;;;;;;12.35;4.00;;;;;;;;;;4993184;28;20023;-71
2023/04/28 10:01:19;;;;;;;9.20;3.92;;;;;;;;;;4993777;28;20389;-72
2023/04/28 10:03:46;;;;;;;14.00;5.03;;;;;;;;;;4976296;28;20030;-71
2023/04/28 10:06:13;;;;;;;19.15;4.25;;;;;;;;;;4993744;28;20565;-72
2023/04/28 10:08:40;;;;;;;11.55;4.00;;;;;;;;;;4975887;28;20027;-71
2023/04/28 10:11:07;;;;;;;12.45;4.07;;;;;;;;;;4976600;28;20548;-71
2023/04/28 10:13:34;;;;;;;13.65;4.22;;;;;;;;;;4994042;28;20507;-72
2023/04/28 10:16:00;;;;;;;9.20;4.18;;;;;;;;;;4993386;28;20033;-71
2023/04/28 10:18:26;;;;;;;10.30;4.15;;;;;;;;;;4993222;28;20034;-71
2023/04/28 10:20:55;;;;;;;11.18;4.07;;;;;;;;;;4993178;28;20089;-72
2023/04/28 10:23:39;;;;;;;11.95;4.07;;;;;;;;;;4993088;28;20121;-72
2023/04/28 10:26:10;;;;;;;10.73;4.25;;;;;;;;;;4991433;28;20031;-71
2023/04/28 10:28:36;;;;;;;9.27;4.37;;;;;;;;;;4973901;28;20018;-71
2023/04/28 10:31:10;;;;;;;7.13;3.53;;;;;;;;;;4991880;28;20026;-74
2023/04/28 10:33:36;;;;;;;7.55;4.03;;;;;;;;;;4992561;28;20037;-72
2023/04/28 10:36:03;;;;;;;8.23;3.72;;;;;;;;;;4992824;28;20033;-72
2023/04/28 10:38:29;;;;;;;9.60;3.78;;;;;;;;;;4992655;28;20025;-73
2023/04/28 10:41:02;;;;;;;8.07;3.70;;;;;;;;;;4991335;28;20484;-71
2023/04/28 10:43:36;;;;;;;6.22;3.83;;;;;;;;;;4992793;28;20073;-73
2023/04/28 10:46:06;;;;;;;5.68;3.70;;;;;;;;;;4991420;28;21730;-73
2023/04/28 10:48:32;;;;;;;6.65;4.65;;;;;;;;;;4991403;28;20665;-73
2023/04/28 10:53:45;;;;;;;9.38;4.95;;;;;;;;;;4988726;28;20089;-73
2023/04/28 10:56:18;;;;;;;10.13;5.15;;;;;;;;;;4990244;28;20661;-71
2023/04/28 10:58:45;;;;;;;10.40;5.85;;;;;;;;;;4989805;28;20022;-72
2023/04/28 11:01:34;;;;;;;9.98;5.82;;;;;;;;;;4992671;28;20026;-72
2023/04/28 11:04:14;;;;;;;11.15;5.50;;;;;;;;;;4955948;28;20023;-72
2023/04/28 11:06:48;;;;;;;7.70;5.40;;;;;;;;;;4970660;28;20118;-72
2023/04/28 11:09:14;;;;;;;8.32;5.18;;;;;;;;;;4971191;28;20397;-71
2023/04/28 11:11:59;;;;;;;10.95;6.03;;;;;;;;;;4971603;28;20384;-73
2023/04/28 11:14:25;;;;;;;10.15;5.55;;;;;;;;;;4971769;28;20445;-73
2023/04/28 11:16:54;;;;;;;7.50;5.03;;;;;;;;;;4970473;28;20031;-72
2023/04/28 11:19:21;;;;;;;8.32;4.68;;;;;;;;;;4971308;28;20053;-72
2023/04/28 11:21:47;;;;;;;7.07;4.63;;;;;;;;;;4972565;28;20034;-71
2023/04/28 11:24:13;;;;;;;7.43;5.07;;;;;;;;;;4972878;28;20038;-73
2023/04/28 11:26:39;;;;;;;11.38;6.28;;;;;;;;;;4972900;28;20499;-73
2023/04/28 11:29:06;;;;;;;8.52;5.65;;;;;;;;;;4972922;28;20034;-71
2023/04/28 11:31:32;;;;;;;15.18;6.50;;;;;;;;;;4973040;28;20037;-71
2023/04/28 11:34:10;;;;;;;9.65;6.75;;;;;;;;;;4972234;28;20043;-74
2023/04/28 11:36:37;;;;;;;14.65;6.57;;;;;;;;;;4972924;28;20090;-72
2023/04/28 11:39:07;;;;;;;8.70;6.05;;;;;;;;;;4971473;28;20037;-72
2023/04/28 11:41:34;;;;;;;8.98;6.88;;;;;;;;;;4954746;28;20027;-70
2023/04/28 11:44:08;;;;;;;9.55;6.30;;;;;;;;;;4972901;28;20031;-72
2023/04/28 11:46:35;;;;;;;8.85;5.88;;;;;;;;;;4972299;28;20106;-73
2023/04/28 11:49:04;;;;;;;10.45;4.90;;;;;;;;;;4971807;28;20169;-70
2023/04/28 11:51:32;;;;;;;6.95;4.82;;;;;;;;;;4972054;28;20509;-71
2023/04/28 11:53:59;;;;;;;8.73;5.43;;;;;;;;;;4971874;28;20045;-73
2023/04/28 11:56:26;;;;;;;7.88;4.80;;;;;;;;;;4982417;28;20664;-72
2023/04/28 11:59:05;;;;;;;7.20;4.25;;;;;;;;;;4991091;28;20029;-72
2023/04/28 12:01:32;;;;;;;11.00;5.88;;;;;;;;;;4990534;28;20081;-72
2023/04/28 12:03:58;;;;;;;12.25;5.15;;;;;;;;;;4991656;28;20052;-72
2023/04/28 12:06:24;;;;;;;6.25;4.47;;;;;;;;;;4991727;28;20109;-72
2023/04/28 12:08:51;;;;;;;6.50;4.55;;;;;;;;;;4990347;28;20026;-73
2023/04/28 12:11:19;;;;;;;7.32;4.75;;;;;;;;;;4991544;28;20034;-74
2023/04/28 12:14:02;;;;;;;7.30;4.85;;;;;;;;;;4991355;28;20034;-73
2023/04/28 12:16:38;;;;;;;10.50;4.82;;;;;;;;;;4988617;23;20037;-75
2023/04/28 12:19:06;;;;;;;10.52;4.82;;;;;;;;;;5031465;28;20117;-75
2023/04/28 12:21:32;;;;;;;7.18;4.43;;;;;;;;;;5031848;28;20057;-76
2023/04/28 12:23:58;;;;;;;10.52;4.70;;;;;;;;;;5032498;28;20025;-76
2023/04/28 12:26:25;;;;;;;8.07;4.60;;;;;;;;;;5032456;28;20041;-76
2023/04/28 12:28:51;;;;;;;8.38;4.65;;;;;;;;;;5031831;28;20044;-74
2023/04/28 12:31:17;;;;;;;8.65;4.63;;;;;;;;;;5032766;28;20476;-75
2023/04/28 12:33:43;;;;;;;8.27;4.95;;;;;;;;;;5017525;28;20030;-78
2023/04/28 12:36:10;;;;;;;7.93;5.07;;;;;;;;;;5019098;28;20040;-76
2023/04/28 12:38:46;;;;;;;8.55;4.72;;;;;;;;;;5037170;28;20029;-75
2023/04/28 12:41:12;;;;;;;10.50;5.22;;;;;;;;;;5037453;28;20034;-73
2023/04/28 12:43:39;;;;;;;10.60;5.65;;;;;;;;;;5037883;28;20082;-76
2023/04/28 12:46:07;;;;;;;8.93;5.72;;;;;;;;;;5036213;28;20033;-76
2023/04/28 12:48:34;;;;;;;9.82;5.90;;;;;;;;;;5033877;28;20108;-76
2023/04/28 12:51:00;;;;;;;11.10;6.60;;;;;;;;;;5030962;28;20029;-74
2023/04/28 12:53:26;;;;;;;12.57;6.57;;;;;;;;;;5031949;28;20049;-74
2023/04/28 12:55:52;;;;;;;16.52;7.82;;;;;;;;;;5034009;28;20440;-74
2023/04/28 12:58:18;;;;;;;15.57;8.32;;;;;;;;;;5015685;28;20105;-74
2023/04/28 13:00:44;;;;;;;13.27;8.20;;;;;;;;;;5034222;28;20060;-75
2023/04/28 13:03:10;;;;;;;14.90;9.05;;;;;;;;;;5034000;28;20025;-75
2023/04/28 13:05:36;;;;;;;14.52;9.50;;;;;;;;;;5030081;28;20021;-78
2023/04/28 13:08:02;;;;;;;15.55;9.30;;;;;;;;;;5015896;28;20404;-76
2023/04/28 13:10:28;;;;;;;15.57;8.95;;;;;;;;;;5033752;28;20030;-75
2023/04/28 13:12:54;;;;;;;17.98;9.77;;;;;;;;;;5033813;28;20022;-77
2023/04/28 13:15:20;;;;;;;15.32;9.48;;;;;;;;;;5033962;28;20100;-75
2023/04/28 13:17:47;;;;;;;14.52;10.07;;;;;;;;;;5033970;28;20038;-77
2023/04/28 13:20:13;;;;;;;17.20;10.35;;;;;;;;;;5033993;28;20436;-77
2023/04/28 13:22:40;;;;;;;14.93;10.90;;;;;;;;;;5033978;28;20140;-76
2023/04/28 13:25:07;;;;;;;19.08;13.40;;;;;;;;;;5033855;28;20024;-77
2023/04/28 13:27:33;;;;;;;21.92;13.07;;;;;;;;;;5033776;28;20026;-76
2023/04/28 13:29:59;;;;;;;16.75;11.57;;;;;;;;;;5034039;28;20025;-77
2023/04/28 13:32:26;;;;;;;18.65;12.05;;;;;;;;;;5015103;28;20068;-77
2023/04/28 13:34:52;;;;;;;17.23;11.65;;;;;;;;;;5034031;28;20458;-77
2023/04/28 13:37:18;;;;;;;17.23;12.13;;;;;;;;;;5033194;28;20021;-78
2023/04/28 13:39:44;;;;;;;14.82;11.55;;;;;;;;;;5033354;28;20075;-74
2023/04/28 13:42:12;;;;;;;21.48;12.05;;;;;;;;;;5032330;28;20471;-75
2023/04/28 13:44:38;;;;;;;18.30;11.70;;;;;;;;;;5033280;28;20064;-74
2023/04/28 13:47:07;;;;;;;18.05;12.30;;;;;;;;;;5032942;28;20061;-73
2023/04/28 13:49:34;;;;;;;15.68;11.55;;;;;;;;;;5028167;28;20033;-73
2023/04/28 13:52:02;;;;;;;19.90;11.43;;;;;;;;;;5025523;28;20026;-74
2023/04/28 13:54:28;;;;;;;15.25;12.23;;;;;;;;;;5033045;28;20383;-74
2023/04/28 13:56:55;;;;;;;20.50;12.85;;;;;;;;;;5033086;28;20033;-75
2023/04/28 13:59:21;;;;;;;17.77;13.27;;;;;;;;;;5033013;28;20025;-75
2023/04/28 14:01:47;;;;;;;18.52;14.00;;;;;;;;;;5033333;28;20057;-75
2023/04/28 14:04:13;;;;;;;17.65;13.32;;;;;;;;;;5032863;28;20451;-73
2023/04/28 14:06:39;;;;;;;25.15;15.48;;;;;;;;;;5032326;28;20048;-74
2023/04/28 14:09:06;;;;;;;18.77;14.18;;;;;;;;;;5032417;28;20026;-75
2023/04/28 14:11:32;;;;;;;17.58;13.63;;;;;;;;;;5032911;28;20029;-74
2023/04/28 14:13:58;;;;;;;19.58;14.80;;;;;;;;;;5032867;28;20053;-74
2023/04/28 14:16:24;;;;;;;22.58;15.02;;;;;;;;;;5014935;28;20076;-74
2023/04/28 14:18:50;;;;;;;16.50;12.30;;;;;;;;;;5014643;28;20033;-73
2023/04/28 14:21:16;;;;;;;19.95;12.75;;;;;;;;;;5032836;28;20026;-76
2023/04/28 14:23:42;;;;;;;17.10;13.15;;;;;;;;;;5033449;28;20037;-80
2023/04/28 14:26:08;;;;;;;17.42;12.65;;;;;;;;;;5035050;28;20029;-79
2023/04/28 14:28:34;;;;;;;19.02;12.57;;;;;;;;;;5033246;28;20503;-79
2023/04/28 14:31:04;;;;;;;16.55;12.48;;;;;;;;;;5032634;28;20191;-76
2023/04/28 14:33:30;;;;;;;17.25;11.52;;;;;;;;;;5015799;28;20021;-80